Time;durP1;ratioP1;P1;durP2;ratioP2;P2;SDS_P1;SDS_P2;PMS_P1;PMS_P2;Temp;Humidity;BMP_temperature;BMP_pressure;BME280_temperature;BME280_humidity;BME280_pressure;Samples;Min_cycle;Max_cycle;Signal;HPM_P1;HPM_P2
2022/03/02 00:00:09;;;;;;;32.00;20.73;;;4.30;1.00;;;;;;5011315;28;20197;-64
2022/03/02 00:02:36;;;;;;;36.23;22.83;;;4.30;1.00;;;;;;5020119;28;20204;-64
2022/03/02 00:05:03;;;;;;;31.90;21.43;;;4.40;1.00;;;;;;5018646;28;20581;-63
2022/03/02 00:07:33;;;;;;;36.50;20.47;;;4.40;1.00;;;;;;5036930;28;20225;-63
2022/03/02 00:10:00;;;;;;;30.43;20.50;;;4.40;1.00;;;;;;5019780;28;20206;-63
2022/03/02 00:12:27;;;;;;;29.13;19.80;;;4.40;1.00;;;;;;5021378;28;20196;-64
2022/03/02 00:14:57;;;;;;;31.87;20.50;;;4.40;1.00;;;;;;5020549;28;20291;-64
2022/03/02 00:17:26;;;;;;;31.70;20.13;;;4.40;1.00;;;;;;5019350;28;20213;-63
2022/03/02 00:19:53;;;;;;;34.00;20.53;;;4.30;1.00;;;;;;5018361;28;20486;-63
2022/03/02 00:22:20;;;;;;;32.20;20.03;;;4.30;1.00;;;;;;5024984;28;20286;-63
2022/03/02 00:24:51;;;;;;;33.73;19.77;;;4.30;1.00;;;;;;5022106;28;20881;-63
2022/03/02 00:27:20;;;;;;;30.13;20.20;;;4.20;1.00;;;;;;5026660;28;20644;-63
2022/03/02 00:29:47;;;;;;;26.77;18.80;;;4.20;1.00;;;;;;5010837;28;20197;-63
2022/03/02 00:32:14;;;;;;;28.07;18.33;;;4.20;1.00;;;;;;5024741;28;20199;-63
2022/03/02 00:34:45;;;;;;;31.93;20.13;;;4.10;1.00;;;;;;5022394;28;20196;-64
2022/03/02 00:37:12;;;;;;;29.10;18.30;;;4.10;1.00;;;;;;5021746;28;20200;-63
2022/03/02 00:39:43;;;;;;;25.63;17.97;;;4.00;1.00;;;;;;5022656;28;20189;-63
2022/03/02 00:42:13;;;;;;;28.13;17.67;;;3.90;91.20;;;;;;5036001;28;20797;-63
2022/03/02 00:44:40;;;;;;;27.77;18.53;;;3.70;99.90;;;;;;5035818;28;20742;-64
2022/03/02 00:47:14;;;;;;;30.00;18.23;;;3.60;99.90;;;;;;5025464;28;20287;-63
2022/03/02 00:49:43;;;;;;;29.00;17.57;;;3.70;99.90;;;;;;5025427;28;20200;-63
2022/03/02 00:52:11;;;;;;;32.07;18.10;;;3.70;99.90;;;;;;5021741;28;20230;-64
2022/03/02 00:54:40;;;;;;;29.73;18.70;;;3.60;99.90;;;;;;5026804;28;20219;-63
2022/03/02 00:57:07;;;;;;;26.07;17.73;;;3.50;99.90;;;;;;5020428;28;20258;-63
2022/03/02 00:59:34;;;;;;;29.23;18.40;;;3.40;99.90;;;;;;5022069;28;20207;-63
2022/03/02 01:02:07;;;;;;;26.13;17.90;;;3.40;99.90;;;;;;5024634;28;20560;-63
2022/03/02 01:04:34;;;;;;;29.20;17.30;;;3.40;99.90;;;;;;5009477;28;20212;-62
2022/03/02 01:07:01;;;;;;;24.40;16.43;;;3.40;99.90;;;;;;5019316;28;20728;-63
2022/03/02 01:09:28;;;;;;;26.90;17.70;;;3.40;99.90;;;;;;5020795;28;20742;-63
2022/03/02 01:11:56;;;;;;;30.00;18.00;;;3.40;99.90;;;;;;5019985;28;20204;-63
2022/03/02 01:14:24;;;;;;;28.93;17.37;;;3.50;99.90;;;;;;5021327;28;20196;-63
2022/03/02 01:16:51;;;;;;;27.23;17.27;;;3.40;99.90;;;;;;5019635;28;20229;-62
2022/03/02 01:19:18;;;;;;;27.27;17.60;;;3.40;99.90;;;;;;5025852;28;20215;-63
2022/03/02 01:21:47;;;;;;;28.03;17.20;;;3.40;99.90;;;;;;5008570;28;20592;-63
2022/03/02 01:24:15;;;;;;;25.70;17.73;;;3.40;99.90;;;;;;5027296;28;20213;-64
2022/03/02 01:26:41;;;;;;;29.40;16.83;;;3.20;99.90;;;;;;5026101;28;20247;-64
2022/03/02 01:29:11;;;;;;;24.50;16.90;;;3.20;99.90;;;;;;5019908;28;20534;-63
2022/03/02 01:31:49;;;;;;;25.43;16.93;;;3.10;99.90;;;;;;5008535;28;20200;-64
2022/03/02 01:34:16;;;;;;;30.40;17.30;;;2.90;99.90;;;;;;5016369;28;20606;-64
2022/03/02 01:36:43;;;;;;;30.87;17.73;;;2.90;99.90;;;;;;5018446;28;20716;-64
2022/03/02 01:39:12;;;;;;;28.17;16.80;;;2.80;99.90;;;;;;5018756;28;20253;-64
2022/03/02 01:41:42;;;;;;;26.77;17.17;;;2.70;99.90;;;;;;5025892;28;20239;-65
2022/03/02 01:44:11;;;;;;;26.10;16.57;;;2.60;99.90;;;;;;5009573;28;20303;-64
2022/03/02 01:46:39;;;;;;;25.73;16.57;;;2.60;99.90;;;;;;5019834;28;20217;-64
2022/03/02 01:49:09;;;;;;;22.70;16.00;;;2.50;99.90;;;;;;5008034;28;20716;-65
2022/03/02 01:51:38;;;;;;;25.17;16.00;;;2.40;1.00;;;;;;5002112;28;20251;-64
2022/03/02 01:54:06;;;;;;;25.47;16.03;;;2.30;1.00;;;;;;5034829;28;20201;-64
2022/03/02 01:56:36;;;;;;;26.23;16.40;;;2.30;1.00;;;;;;5023706;28;20614;-65
2022/03/02 01:59:04;;;;;;;23.50;16.20;;;2.30;1.00;;;;;;5025446;28;20703;-64
2022/03/02 02:01:32;;;;;;;24.33;16.17;;;2.30;1.00;;;;;;5016932;28;20264;-63
2022/03/02 02:04:03;;;;;;;22.87;15.30;;;2.30;1.00;;;;;;5019650;28;20235;-62
2022/03/02 02:06:30;;;;;;;23.43;16.00;;;2.20;1.00;;;;;;5025880;28;20548;-62
2022/03/02 02:08:59;;;;;;;26.60;17.03;;;2.30;1.00;;;;;;5025225;28;20259;-63
2022/03/02 02:11:26;;;;;;;21.23;15.63;;;2.30;1.00;;;;;;5018867;28;20305;-65
2022/03/02 02:13:56;;;;;;;24.00;15.70;;;2.40;99.90;;;;;;5025302;28;20200;-64
2022/03/02 02:16:26;;;;;;;23.17;15.13;;;2.40;99.90;;;;;;5002726;28;20790;-64
2022/03/02 02:18:56;;;;;;;24.47;15.83;;;2.40;99.90;;;;;;5016210;28;20257;-64
2022/03/02 02:21:23;;;;;;;26.00;16.57;;;2.50;99.90;;;;;;5023731;28;20247;-63
2022/03/02 02:23:50;;;;;;;27.27;17.73;;;2.50;99.90;;;;;;5001023;28;20271;-63
2022/03/02 02:26:21;;;;;;;21.20;14.73;;;2.50;99.90;;;;;;5021992;28;20200;-65
2022/03/02 02:29:06;;;;;;;22.90;15.17;;;2.50;99.90;;;;;;5005336;28;20200;-64
2022/03/02 02:31:36;;;;;;;24.83;15.03;;;2.50;99.90;;;;;;5017505;28;20709;-64
2022/03/02 02:34:03;;;;;;;25.47;16.27;;;2.50;99.90;;;;;;5022785;28;20263;-64
2022/03/02 02:36:31;;;;;;;22.83;15.57;;;2.50;99.90;;;;;;5018378;28;20200;-63
2022/03/02 02:38:58;;;;;;;23.43;15.33;;;2.40;99.90;;;;;;5018778;28;20738;-64
2022/03/02 02:41:28;;;;;;;22.93;14.93;;;2.40;99.90;;;;;;5024712;28;20263;-63
2022/03/02 02:43:58;;;;;;;22.00;14.50;;;2.30;99.90;;;;;;5017923;28;20390;-64
2022/03/02 02:46:26;;;;;;;23.77;15.77;;;2.30;99.90;;;;;;5002189;28;20212;-63
2022/03/02 02:48:56;;;;;;;23.93;15.50;;;2.20;99.90;;;;;;5017535;28;20716;-65
2022/03/02 02:51:26;;;;;;;23.07;15.67;;;2.20;99.90;;;;;;5017526;28;20203;-64
2022/03/02 02:53:54;;;;;;;24.53;15.93;;;2.10;99.90;;;;;;5003290;28;20197;-64
2022/03/02 02:56:21;;;;;;;26.47;15.93;;;2.20;99.90;;;;;;5025281;28;20208;-65
2022/03/02 02:58:48;;;;;;;20.23;13.67;;;2.10;99.90;;;;;;5018312;28;20204;-66
2022/03/02 03:01:15;;;;;;;22.57;15.00;;;2.20;99.90;;;;;;5000823;28;20726;-64
2022/03/02 03:03:44;;;;;;;24.43;15.63;;;2.10;99.90;;;;;;5007693;28;20945;-65
2022/03/02 03:06:11;;;;;;;23.20;16.17;;;2.10;99.90;;;;;;5034144;28;20192;-65
2022/03/02 03:08:39;;;;;;;25.37;15.13;;;2.00;99.90;;;;;;5008247;28;20227;-65
2022/03/02 03:11:06;;;;;;;22.13;15.20;;;2.00;99.90;;;;;;5022675;28;20219;-65
2022/03/02 03:13:33;;;;;;;24.20;15.17;;;2.10;99.90;;;;;;5024872;28;20283;-64
2022/03/02 03:16:00;;;;;;;19.00;14.13;;;2.00;99.90;;;;;;5020425;28;20224;-64
2022/03/02 03:18:29;;;;;;;23.57;14.43;;;2.10;99.90;;;;;;5015877;28;20200;-64
2022/03/02 03:20:56;;;;;;;24.53;15.00;;;2.10;99.90;;;;;;5023872;28;20220;-65
2022/03/02 03:23:28;;;;;;;22.97;14.93;;;2.00;99.90;;;;;;5007955;28;20220;-64
2022/03/02 03:25:55;;;;;;;23.53;14.30;;;2.00;99.90;;;;;;5033594;28;20693;-63
2022/03/02 03:28:22;;;;;;;22.33;14.53;;;2.10;99.90;;;;;;5016768;28;20310;-63
2022/03/02 03:30:49;;;;;;;21.50;14.50;;;2.10;99.90;;;;;;5010847;28;20627;-63
2022/03/02 03:33:16;;;;;;;22.90;14.77;;;2.20;99.90;;;;;;5006684;28;20206;-63
2022/03/02 03:35:43;;;;;;;24.60;15.40;;;2.20;99.90;;;;;;5014771;28;20265;-63
2022/03/02 03:38:13;;;;;;;24.73;15.70;;;2.20;99.90;;;;;;5012542;28;21033;-62
2022/03/02 03:40:42;;;;;;;21.63;14.07;;;2.20;99.90;;;;;;5004129;28;20219;-63
2022/03/02 03:43:09;;;;;;;20.93;14.20;;;2.10;99.90;;;;;;5022610;28;20192;-64
2022/03/02 03:45:39;;;;;;;20.07;14.13;;;2.10;99.90;;;;;;5022883;28;20203;-64
2022/03/02 03:48:10;;;;;;;21.97;14.33;;;2.00;99.90;;;;;;5020866;28;20629;-63
2022/03/02 03:50:39;;;;;;;21.47;14.83;;;2.00;99.90;;;;;;5003867;28;20192;-64
2022/03/02 03:53:06;;;;;;;25.63;15.63;;;2.00;99.90;;;;;;5019658;28;20197;-63
2022/03/02 03:55:33;;;;;;;51.37;26.23;;;2.00;99.90;;;;;;5021861;28;20228;-64
2022/03/02 03:58:03;;;;;;;40.20;22.63;;;1.90;99.90;;;;;;5017624;28;20556;-64
2022/03/02 04:00:30;;;;;;;40.87;22.50;;;1.80;99.90;;;;;;5020212;28;20810;-64
2022/03/02 04:02:57;;;;;;;42.03;23.83;;;1.80;99.90;;;;;;5020532;28;20211;-64
2022/03/02 04:05:24;;;;;;;45.80;24.13;;;1.80;99.90;;;;;;5007601;28;20200;-64
2022/03/02 04:07:51;;;;;;;33.97;20.20;;;1.80;99.90;;;;;;5026504;28;20319;-64
2022/03/02 04:10:18;;;;;;;31.07;18.50;;;1.80;99.90;;;;;;5021057;28;20729;-63
2022/03/02 04:12:46;;;;;;;30.77;18.63;;;1.70;99.90;;;;;;5008914;28;20216;-64
2022/03/02 04:15:13;;;;;;;31.77;18.77;;;1.70;99.90;;;;;;5020531;28;20294;-64
2022/03/02 04:17:41;;;;;;;27.70;16.37;;;1.70;99.90;;;;;;5026513;28;21158;-65
2022/03/02 04:20:11;;;;;;;24.77;15.40;;;1.60;99.90;;;;;;5007832;28;20263;-63
2022/03/02 04:22:38;;;;;;;23.37;15.50;;;1.60;99.90;;;;;;5025634;28;20272;-63
2022/03/02 04:25:06;;;;;;;27.03;15.50;;;1.60;99.90;;;;;;5026754;28;20235;-64
2022/03/02 04:27:32;;;;;;;22.97;15.10;;;1.60;99.90;;;;;;5025865;28;20638;-65
2022/03/02 04:30:02;;;;;;;24.00;15.43;;;1.50;99.90;;;;;;5027198;28;20229;-64
2022/03/02 04:32:29;;;;;;;74.40;32.00;;;1.50;99.90;;;;;;5015837;28;20196;-63
2022/03/02 04:34:56;;;;;;;52.33;25.97;;;1.50;99.90;;;;;;5020403;28;20607;-64
2022/03/02 04:37:23;;;;;;;53.83;27.10;;;1.40;99.90;;;;;;5025854;28;20254;-63
2022/03/02 04:39:54;;;;;;;51.73;27.33;;;1.40;99.90;;;;;;5020239;28;21250;-64
2022/03/02 04:42:23;;;;;;;62.17;30.87;;;1.30;1.00;;;;;;5014860;28;20209;-63
2022/03/02 04:44:50;;;;;;;33.53;19.73;;;1.30;1.00;;;;;;5034439;28;20215;-63
2022/03/02 04:47:19;;;;;;;29.47;16.57;;;1.20;1.00;;;;;;5025655;28;20196;-64
2022/03/02 04:49:47;;;;;;;31.17;17.63;;;1.30;1.00;;;;;;5024052;28;20250;-63
2022/03/02 04:52:14;;;;;;;27.03;16.17;;;1.30;1.00;;;;;;5018558;28;20238;-63
2022/03/02 04:57:27;;;;;;;27.37;15.70;;;1.20;1.00;;;;;;5018839;28;20213;-64
2022/03/02 04:59:54;;;;;;;24.80;15.37;;;1.10;1.00;;;;;;5002370;28;20196;-64
2022/03/02 05:02:21;;;;;;;25.17;15.90;;;1.00;1.00;;;;;;5021058;28;20728;-63
2022/03/02 05:04:50;;;;;;;22.63;15.73;;;1.00;1.00;;;;;;5009169;28;20336;-63
2022/03/02 05:07:20;;;;;;;25.70;16.10;;;1.00;1.00;;;;;;5021064;28;20209;-63
2022/03/02 05:09:47;;;;;;;24.37;15.57;;;1.00;1.00;;;;;;5018526;28;20192;-63
2022/03/02 05:12:16;;;;;;;25.30;15.40;;;0.90;1.00;;;;;;5017950;28;20232;-63
2022/03/02 05:14:43;;;;;;;24.50;15.87;;;0.90;1.00;;;;;;5019215;28;20535;-64
2022/03/02 05:17:10;;;;;;;25.40;15.43;;;1.00;1.00;;;;;;5019695;28;20224;-64
2022/03/02 05:19:39;;;;;;;22.67;14.63;;;0.90;1.00;;;;;;5021079;28;20192;-64
2022/03/02 05:22:06;;;;;;;32.03;16.20;;;0.90;1.00;;;;;;5023876;28;20231;-64
2022/03/02 05:24:36;;;;;;;26.67;16.13;;;0.80;1.00;;;;;;5016985;28;20297;-63
2022/03/02 05:27:06;;;;;;;23.33;14.90;;;0.80;1.00;;;;;;5019599;28;20203;-64
2022/03/02 05:29:36;;;;;;;26.87;14.47;;;0.70;1.00;;;;;;5017481;28;20208;-63
2022/03/02 05:32:04;;;;;;;25.77;14.80;;;0.80;1.00;;;;;;5019890;28;20250;-64
2022/03/02 05:34:31;;;;;;;24.70;14.70;;;0.70;1.00;;;;;;5019501;28;20201;-63
2022/03/02 05:36:58;;;;;;;28.73;15.97;;;0.50;1.00;;;;;;5024781;28;20203;-64
2022/03/02 05:39:25;;;;;;;22.67;15.03;;;0.50;1.00;;;;;;5020418;28;20192;-63
2022/03/02 05:41:52;;;;;;;26.83;15.70;;;0.40;1.00;;;;;;5022946;28;20200;-63
2022/03/02 05:44:22;;;;;;;22.83;15.27;;;0.40;1.00;;;;;;5019441;28;20200;-65
2022/03/02 05:46:50;;;;;;;22.83;15.67;;;0.40;1.00;;;;;;5001307;28;20201;-63
2022/03/02 05:49:17;;;;;;;23.07;14.27;;;0.30;1.00;;;;;;4999697;28;20271;-64
2022/03/02 05:51:44;;;;;;;24.07;15.30;;;0.30;1.00;;;;;;5020818;28;20276;-63
2022/03/02 05:54:11;;;;;;;22.93;15.60;;;0.30;1.00;;;;;;5018153;28;20290;-63
2022/03/02 05:56:41;;;;;;;25.67;15.57;;;0.30;1.00;;;;;;5002240;28;20290;-64
2022/03/02 05:59:11;;;;;;;25.53;15.93;;;0.30;1.00;;;;;;5015049;28;20209;-63
2022/03/02 06:01:41;;;;;;;27.30;16.50;;;0.30;1.00;;;;;;5019170;28;20227;-63
2022/03/02 06:04:11;;;;;;;29.70;17.70;;;0.30;1.00;;;;;;5015384;28;20212;-63
2022/03/02 06:06:42;;;;;;;24.27;15.47;;;0.30;1.00;;;;;;5023001;28;20200;-63
2022/03/02 06:09:10;;;;;;;28.57;16.90;;;0.30;1.00;;;;;;5008205;28;20212;-63
2022/03/02 06:11:38;;;;;;;25.77;16.83;;;0.30;1.00;;;;;;5008396;28;20887;-63
2022/03/02 06:14:06;;;;;;;25.47;17.20;;;0.30;1.00;;;;;;5015092;28;20192;-64
2022/03/02 06:16:42;;;;;;;24.03;16.50;;;0.40;1.00;;;;;;5017971;28;20275;-65
2022/03/02 06:19:10;;;;;;;21.97;14.83;;;0.40;1.00;;;;;;5012683;28;20287;-65
2022/03/02 06:21:40;;;;;;;23.90;15.57;;;0.40;1.00;;;;;;5023131;28;20251;-64
2022/03/02 06:24:08;;;;;;;24.03;14.77;;;0.40;1.00;;;;;;5019330;28;20222;-65
2022/03/02 06:26:36;;;;;;;27.63;15.63;;;0.40;1.00;;;;;;5021130;28;20211;-66
2022/03/02 06:29:03;;;;;;;22.70;16.10;;;0.40;1.00;;;;;;5022544;28;20266;-64
2022/03/02 06:31:33;;;;;;;28.10;15.53;;;0.40;1.00;;;;;;5018886;28;20205;-65
2022/03/02 06:34:05;;;;;;;27.07;16.00;;;0.40;1.00;;;;;;5017035;28;20200;-66
2022/03/02 06:36:32;;;;;;;25.40;15.63;;;0.50;1.00;;;;;;5021618;28;20672;-63
2022/03/02 06:38:59;;;;;;;26.33;14.93;;;0.50;1.00;;;;;;5024025;28;20201;-65
2022/03/02 06:41:58;;;;;;;24.73;15.90;;;0.60;1.00;;;;;;5022215;28;20212;-64
2022/03/02 06:44:30;;;;;;;21.90;14.37;;;0.60;1.00;;;;;;5000596;28;20212;-64
2022/03/02 06:47:10;;;;;;;24.10;15.47;;;0.50;1.00;;;;;;5016459;28;20196;-66
2022/03/02 06:49:49;;;;;;;28.17;17.33;;;0.50;1.00;;;;;;5021354;28;20216;-63
2022/03/02 06:52:20;;;;;;;29.10;16.07;;;0.50;1.00;;;;;;5017503;28;20188;-63
2022/03/02 06:54:50;;;;;;;24.43;16.27;;;0.50;1.00;;;;;;5014833;28;20990;-63
2022/03/02 06:57:19;;;;;;;25.03;16.27;;;0.60;1.00;;;;;;5032119;28;20238;-65
2022/03/02 06:59:52;;;;;;;23.50;16.03;;;0.60;1.00;;;;;;5017451;28;23180;-64
2022/03/02 07:02:39;;;;;;;26.90;15.67;;;0.70;1.00;;;;;;5020815;28;20262;-64
2022/03/02 07:05:08;;;;;;;28.83;15.10;;;0.90;99.90;;;;;;5026684;28;20874;-63
2022/03/02 07:07:36;;;;;;;28.00;15.90;;;1.00;99.90;;;;;;5021032;28;20204;-63
2022/03/02 07:10:08;;;;;;;22.20;15.17;;;1.20;99.90;;;;;;5022871;28;20217;-64
2022/03/02 07:12:36;;;;;;;43.40;21.43;;;1.40;99.90;;;;;;5005940;28;20201;-65
2022/03/02 07:15:04;;;;;;;39.73;20.40;;;1.60;99.90;;;;;;5022787;28;20197;-65
2022/03/02 07:17:32;;;;;;;32.67;18.23;;;1.90;99.90;;;;;;5020314;28;20629;-64
2022/03/02 07:20:00;;;;;;;26.27;17.10;;;2.30;99.90;;;;;;5040551;28;20295;-63
2022/03/02 07:22:34;;;;;;;27.83;17.23;;;2.60;44.50;;;;;;5022514;28;20590;-63
2022/03/02 07:25:05;;;;;;;27.37;17.17;;;2.90;1.00;;;;;;5023585;28;20261;-63
2022/03/02 07:27:38;;;;;;;27.43;16.47;;;3.20;1.00;;;;;;5021685;28;20204;-63
2022/03/02 07:30:06;;;;;;;25.23;16.60;;;3.50;1.00;;;;;;5021587;28;20270;-63
2022/03/02 07:32:35;;;;;;;30.50;19.23;;;3.70;1.00;;;;;;5021171;28;21056;-63
2022/03/02 07:35:04;;;;;;;33.43;20.13;;;3.80;1.00;;;;;;5026941;28;20279;-63
2022/03/02 07:37:32;;;;;;;36.57;21.63;;;3.90;1.00;;;;;;5027952;28;20279;-63
2022/03/02 07:40:03;;;;;;;29.00;17.50;;;4.10;1.00;;;;;;5020642;28;20196;-62
2022/03/02 07:42:32;;;;;;;26.43;18.03;;;4.30;1.00;;;;;;5021419;28;20254;-63
2022/03/02 07:45:03;;;;;;;28.27;19.03;;;4.50;1.00;;;;;;5025303;28;20627;-62
2022/03/02 07:47:30;;;;;;;25.90;16.93;;;4.30;1.00;;;;;;5025962;28;20201;-64
2022/03/02 07:49:57;;;;;;;22.50;14.43;;;4.70;1.00;;;;;;5023535;28;20228;-64
2022/03/02 07:52:27;;;;;;;25.60;15.20;;;4.90;99.90;;;;;;5023297;28;20244;-61
2022/03/02 07:55:02;;;;;;;23.60;15.67;;;4.70;99.90;;;;;;5021868;28;20291;-63
2022/03/02 07:57:30;;;;;;;22.73;14.00;;;4.60;99.90;;;;;;5026544;28;20207;-63
2022/03/02 07:59:59;;;;;;;24.17;14.70;;;4.50;99.90;;;;;;5019788;28;20215;-63
2022/03/02 08:02:31;;;;;;;22.97;14.43;;;4.20;1.00;;;;;;5025388;28;20723;-64
2022/03/02 08:05:01;;;;;;;22.37;15.43;;;3.80;1.00;;;;;;5022128;28;20813;-63
2022/03/02 08:07:28;;;;;;;20.83;14.33;;;3.60;1.00;;;;;;5015069;28;20220;-62
2022/03/02 08:09:55;;;;;;;26.83;14.67;;;3.70;1.00;;;;;;5021414;28;20303;-64
2022/03/02 08:12:24;;;;;;;23.63;14.43;;;3.60;1.00;;;;;;5023912;28;20204;-64
2022/03/02 08:14:53;;;;;;;19.57;14.47;;;3.70;1.00;;;;;;5023906;28;20591;-63
2022/03/02 08:17:21;;;;;;;20.87;13.70;;;3.80;1.00;;;;;;5020009;28;20200;-63
2022/03/02 08:19:48;;;;;;;17.47;12.10;;;3.90;1.00;;;;;;5016467;28;20212;-63
2022/03/02 08:22:19;;;;;;;19.27;13.50;;;4.00;1.00;;;;;;5025713;28;20232;-62
2022/03/02 08:25:12;;;;;;;21.03;12.87;;;4.00;99.90;;;;;;5021672;28;20204;-62
2022/03/02 08:27:44;;;;;;;17.37;11.67;;;4.10;99.90;;;;;;5000096;28;20200;-63
2022/03/02 08:30:13;;;;;;;23.90;12.93;;;4.10;99.90;;;;;;5005732;28;20244;-63
2022/03/02 08:32:44;;;;;;;21.53;12.37;;;4.30;99.90;;;;;;5022177;28;20185;-64
2022/03/02 08:35:14;;;;;;;18.27;11.53;;;4.40;99.90;;;;;;5021440;28;20738;-63
2022/03/02 08:37:42;;;;;;;21.80;11.57;;;4.50;99.90;;;;;;5020149;28;20564;-62
2022/03/02 08:40:13;;;;;;;15.10;10.60;;;4.60;58.30;;;;;;5024697;28;20278;-63
2022/03/02 08:42:40;;;;;;;18.87;10.77;;;4.70;9.00;;;;;;5026098;28;20266;-63
2022/03/02 08:45:08;;;;;;;15.03;10.53;;;4.70;1.00;;;;;;5020252;28;20205;-63
2022/03/02 08:47:35;;;;;;;15.63;10.97;;;4.70;1.00;;;;;;5026289;28;20263;-63
2022/03/02 08:50:04;;;;;;;18.83;10.63;;;4.80;1.00;;;;;;5019549;28;20225;-63
2022/03/02 08:52:33;;;;;;;19.20;10.70;;;4.90;1.00;;;;;;5021677;28;20204;-62
2022/03/02 08:55:06;;;;;;;18.17;10.73;;;5.00;1.00;;;;;;5019829;28;20197;-63
2022/03/02 08:57:36;;;;;;;16.13;10.80;;;5.10;1.00;;;;;;5006494;28;20200;-64
2022/03/02 09:00:07;;;;;;;17.60;11.23;;;5.20;1.00;;;;;;5022316;28;20250;-64
2022/03/02 09:02:39;;;;;;;18.87;10.90;;;5.30;1.00;;;;;;5019304;28;20215;-63
2022/03/02 09:05:07;;;;;;;15.50;10.37;;;5.40;1.00;;;;;;5028116;28;20197;-63
2022/03/02 09:07:37;;;;;;;16.30;10.37;;;5.60;1.00;;;;;;5021381;28;20291;-64
2022/03/02 09:10:06;;;;;;;16.73;10.10;;;5.70;1.00;;;;;;5022040;28;20224;-64
2022/03/02 09:12:33;;;;;;;15.77;10.07;;;7.90;1.00;;;;;;5024326;28;20220;-64
2022/03/02 09:15:00;;;;;;;20.43;10.20;;;15.10;1.00;;;;;;5021818;28;20859;-65
2022/03/02 09:17:28;;;;;;;14.77;10.40;;;19.70;1.00;;;;;;5014085;28;20279;-64
2022/03/02 09:19:57;;;;;;;13.18;10.00;;;20.90;1.00;;;;;;5021908;28;20737;-66
2022/03/02 09:22:26;;;;;;;15.13;10.45;;;22.20;1.00;;;;;;5042281;28;20228;-63
2022/03/02 09:24:54;;;;;;;14.05;10.27;;;23.00;1.00;;;;;;5016081;28;20262;-65
2022/03/02 09:27:21;;;;;;;14.00;9.88;;;23.30;1.00;;;;;;5027017;28;20195;-64
2022/03/02 09:29:51;;;;;;;13.55;10.05;;;21.90;99.90;;;;;;5042918;28;20316;-65
2022/03/02 09:32:19;;;;;;;11.10;9.18;;;23.60;99.90;;;;;;5026280;28;20325;-65
2022/03/02 09:34:51;;;;;;;12.40;8.77;;;23.60;99.90;;;;;;5029431;28;20184;-64
2022/03/02 09:37:18;;;;;;;10.98;8.50;;;23.80;99.90;;;;;;5027747;28;20661;-64
2022/03/02 09:39:49;;;;;;;10.50;8.25;;;25.20;99.90;;;;;;5027427;28;20195;-65
2022/03/02 09:42:32;;;;;;;12.18;9.50;;;25.90;99.90;;;;;;5016531;28;20218;-64
2022/03/02 09:45:09;;;;;;;14.90;9.10;;;26.00;99.90;;;;;;5026290;28;20206;-64
2022/03/02 09:47:49;;;;;;;13.82;9.40;;;26.10;99.90;;;;;;5029336;28;20195;-64
2022/03/02 09:50:18;;;;;;;13.88;9.88;;;25.70;99.90;;;;;;5028151;28;20224;-64
2022/03/02 09:52:47;;;;;;;10.82;9.65;;;25.20;99.90;;;;;;5027185;28;20215;-64
2022/03/02 09:55:17;;;;;;;11.23;9.40;;;25.80;99.90;;;;;;5026031;28;20204;-64
2022/03/02 09:57:47;;;;;;;12.40;9.70;;;24.60;99.90;;;;;;5026816;28;20215;-63
2022/03/02 10:00:16;;;;;;;12.88;9.23;;;25.70;99.90;;;;;;5029031;28;20734;-64
2022/03/02 10:02:49;;;;;;;11.52;9.68;;;26.10;99.90;;;;;;5024983;28;20207;-64
2022/03/02 10:05:25;;;;;;;12.68;10.00;;;25.70;99.90;;;;;;5021516;28;20211;-66
2022/03/02 10:08:07;;;;;;;11.48;10.27;;;26.40;99.90;;;;;;5025736;28;20850;-63
2022/03/02 10:10:37;;;;;;;13.25;10.10;;;27.90;99.90;;;;;;5009366;28;20212;-64
2022/03/02 10:13:12;;;;;;;12.25;9.48;;;28.00;99.90;;;;;;5022460;28;20675;-64
2022/03/02 10:15:42;;;;;;;14.32;10.20;;;28.40;99.90;;;;;;5024050;28;20202;-64
2022/03/02 10:18:11;;;;;;;13.70;10.15;;;29.70;99.90;;;;;;5004305;28;20204;-66
2022/03/02 10:20:49;;;;;;;15.77;9.30;;;29.40;99.90;;;;;;5015549;28;20237;-66
2022/03/02 10:23:40;;;;;;;13.48;10.23;;;26.40;99.90;;;;;;5022926;28;20235;-64
2022/03/02 10:26:16;;;;;;;13.00;9.68;;;25.80;99.90;;;;;;5026022;28;20243;-64
2022/03/02 10:28:52;;;;;;;11.90;9.38;;;27.10;99.90;;;;;;5024435;28;20200;-67
2022/03/02 10:31:37;;;;;;;14.40;10.43;;;26.90;99.90;;;;;;5028317;28;20216;-66
2022/03/02 10:34:32;;;;;;;14.77;9.48;;;26.60;99.90;;;;;;5039152;28;20223;-64
2022/03/02 10:37:08;;;;;;;15.10;10.95;;;28.80;99.90;;;;;;5025779;28;20200;-63
2022/03/02 10:39:50;;;;;;;15.65;10.48;;;27.50;99.90;;;;;;5024792;28;20667;-64
2022/03/02 10:42:25;;;;;;;12.25;9.75;;;26.60;99.90;;;;;;5005346;28;20283;-63
2022/03/02 10:45:12;;;;;;;13.43;10.98;;;25.70;99.90;;;;;;5020173;28;20195;-65
2022/03/02 10:48:01;;;;;;;13.02;9.82;;;27.40;99.90;;;;;;5020291;28;20204;-64
2022/03/02 10:50:36;;;;;;;12.05;9.88;;;29.80;99.90;;;;;;5041289;28;20205;-65
2022/03/02 10:53:07;;;;;;;12.48;10.80;;;31.10;99.90;;;;;;5007764;28;20203;-63
2022/03/02 10:55:35;;;;;;;14.50;10.23;;;28.50;99.90;;;;;;5028082;28;20295;-65
2022/03/02 10:58:04;;;;;;;13.40;10.80;;;29.30;99.90;;;;;;5014031;28;20207;-64
2022/03/02 11:00:32;;;;;;;11.20;9.70;;;31.10;99.90;;;;;;5006829;28;20769;-65
2022/03/02 11:03:01;;;;;;;14.05;10.30;;;30.70;99.90;;;;;;5008342;28;20200;-64
2022/03/02 11:05:30;;;;;;;13.98;10.30;;;29.10;99.90;;;;;;5032992;28;20193;-65
2022/03/02 11:08:00;;;;;;;11.55;10.35;;;29.60;99.90;;;;;;5025767;28;20226;-64
2022/03/02 11:10:33;;;;;;;13.90;10.15;;;29.60;99.90;;;;;;5009721;28;20251;-64
2022/03/02 11:13:11;;;;;;;13.18;10.70;;;29.40;99.90;;;;;;5035827;28;20729;-64
2022/03/02 11:15:47;;;;;;;16.30;10.60;;;28.20;99.90;;;;;;5026083;28;20983;-65
2022/03/02 11:18:17;;;;;;;13.35;10.13;;;27.00;99.90;;;;;;5027527;28;20207;-64
2022/03/02 11:21:01;;;;;;;15.70;10.20;;;26.90;99.90;;;;;;5001168;28;20771;-64
2022/03/02 11:23:42;;;;;;;12.27;10.32;;;26.10;99.90;;;;;;5028167;28;20200;-64
2022/03/02 11:26:12;;;;;;;13.38;9.77;;;25.50;99.90;;;;;;5018858;28;20196;-64
2022/03/02 11:28:48;;;;;;;13.38;10.05;;;25.50;99.90;;;;;;5022577;28;20254;-64
2022/03/02 11:31:24;;;;;;;11.50;9.55;;;26.40;99.90;;;;;;5024123;28;20201;-64
2022/03/02 11:34:14;;;;;;;11.13;9.02;;;26.10;99.90;;;;;;5018608;28;20262;-64
2022/03/02 11:36:48;;;;;;;11.75;9.40;;;25.10;99.90;;;;;;5023503;28;20188;-63
2022/03/02 11:39:23;;;;;;;10.20;8.98;;;24.10;99.90;;;;;;5023455;28;20251;-63
2022/03/02 11:41:52;;;;;;;11.10;9.30;;;22.80;99.90;;;;;;5021838;28;20204;-63
2022/03/02 11:44:32;;;;;;;9.63;8.63;;;23.40;99.90;;;;;;5027781;28;20211;-64
2022/03/02 11:47:08;;;;;;;11.85;9.15;;;22.40;99.90;;;;;;5024941;28;20224;-63
2022/03/02 11:49:44;;;;;;;9.18;8.20;;;21.20;99.90;;;;;;5036711;28;20311;-63
2022/03/02 11:52:20;;;;;;;10.90;9.02;;;20.70;99.90;;;;;;5013935;28;20223;-63
2022/03/02 11:54:58;;;;;;;11.57;8.75;;;21.50;99.90;;;;;;5027357;28;20225;-64
2022/03/02 11:57:28;;;;;;;11.15;8.90;;;21.80;99.90;;;;;;5030321;28;20196;-63
2022/03/02 12:00:08;;;;;;;13.05;9.55;;;20.70;99.90;;;;;;5014859;28;20212;-64
2022/03/02 12:02:56;;;;;;;9.98;8.80;;;20.30;99.90;;;;;;5032424;28;20669;-63
2022/03/02 12:05:34;;;;;;;9.98;8.98;;;20.20;99.90;;;;;;5015648;28;20220;-65
2022/03/02 12:08:13;;;;;;;11.05;8.15;;;21.10;99.90;;;;;;5011357;28;20784;-66
2022/03/02 12:10:53;;;;;;;12.68;9.13;;;22.30;99.90;;;;;;5026904;28;20453;-67
2022/03/02 12:13:23;;;;;;;10.07;8.98;;;20.70;99.90;;;;;;5029138;28;20188;-66
2022/03/02 12:15:55;;;;;;;11.27;9.00;;;19.90;99.90;;;;;;5034911;28;20230;-66
2022/03/02 12:18:23;;;;;;;11.70;9.05;;;19.80;99.90;;;;;;5015630;28;20745;-65
2022/03/02 12:20:55;;;;;;;11.27;9.13;;;19.50;99.90;;;;;;5012064;28;20254;-67
2022/03/02 12:23:24;;;;;;;11.70;8.73;;;18.90;99.90;;;;;;5026326;28;20230;-66
2022/03/02 12:25:52;;;;;;;14.85;9.35;;;18.80;99.90;;;;;;5032830;28;20245;-68
2022/03/02 12:28:23;;;;;;;13.32;8.88;;;18.80;99.90;;;;;;5030072;28;20200;-67
2022/03/02 12:30:50;;;;;;;13.02;9.30;;;19.80;99.90;;;;;;5016899;28;20242;-66
2022/03/02 12:33:19;;;;;;;11.10;8.82;;;19.80;99.90;;;;;;5015513;28;20196;-66
2022/03/02 12:35:46;;;;;;;14.75;9.25;;;19.80;99.90;;;;;;5027575;28;20192;-66
2022/03/02 12:38:14;;;;;;;12.25;8.88;;;19.30;99.90;;;;;;5029436;28;20283;-66
2022/03/02 12:40:42;;;;;;;9.77;8.75;;;20.10;99.90;;;;;;5026295;28;21441;-66
2022/03/02 12:43:11;;;;;;;11.40;8.75;;;19.20;99.90;;;;;;5023112;28;20211;-66
2022/03/02 12:45:44;;;;;;;12.63;8.60;;;18.70;99.90;;;;;;5025762;28;20200;-66
2022/03/02 12:48:14;;;;;;;10.60;8.18;;;18.40;99.90;;;;;;5022894;28;20192;-67
2022/03/02 12:50:42;;;;;;;11.75;7.88;;;17.40;99.90;;;;;;5021188;28;20200;-67
2022/03/02 12:53:10;;;;;;;9.38;7.85;;;17.50;99.90;;;;;;5005350;28;20200;-68
2022/03/02 12:55:39;;;;;;;9.40;7.60;;;18.00;99.90;;;;;;5022555;28;20195;-66
2022/03/02 12:58:07;;;;;;;9.40;7.35;;;16.70;99.90;;;;;;5025858;28;20253;-67